createdAt,value
2017-11-24T19:48:30.529Z,1006.18
2017-11-24T19:48:56.639Z,1006.19
2017-11-24T19:49:22.756Z,1006.23
2017-11-24T19:49:48.874Z,1006.24
2017-11-24T19:50:15.019Z,1006.24
2017-11-24T19:50:41.132Z,1006.27
2017-11-24T19:58:57.060Z,1006.23
2017-11-24T20:03:14.170Z,1006.17
2017-11-24T20:03:40.305Z,1006.2
2017-11-24T20:04:06.419Z,1006.23
2017-11-24T20:04:32.564Z,1006.23
2017-11-24T20:04:58.681Z,1006.25
2017-11-24T20:05:24.799Z,1006.23
2017-11-24T20:05:50.920Z,1006.22
2017-11-24T20:06:17.046Z,1006.25
2017-11-24T20:06:43.185Z,1006.25
2017-11-24T20:07:09.311Z,1006.24
2017-11-24T20:07:35.458Z,1006.28
2017-11-24T20:08:01.586Z,1006.28
2017-11-24T20:08:27.698Z,1006.3
2017-11-24T20:08:53.825Z,1006.31
2017-11-24T20:09:19.940Z,1006.27
2017-11-24T20:09:46.060Z,1006.27
2017-11-24T20:10:12.181Z,1006.24
2017-11-24T20:10:38.299Z,1006.28
2017-11-24T20:11:04.426Z,1006.26
2017-11-24T20:11:30.555Z,1006.23
2017-11-24T20:11:56.667Z,1006.27
2017-11-24T20:12:22.804Z,1006.26
2017-11-24T20:12:48.926Z,1006.3
2017-11-24T20:13:15.043Z,1006.29
2017-11-24T20:13:41.164Z,1006.28
2017-11-24T20:14:07.318Z,1006.28
2017-11-24T20:14:33.437Z,1006.27
2017-11-24T20:14:59.560Z,1006.32
2017-11-24T20:15:25.674Z,1006.32
2017-11-24T20:15:51.819Z,1006.31
2017-11-24T20:16:17.938Z,1006.3
2017-11-24T20:16:44.053Z,1006.36
2017-11-24T20:17:10.179Z,1006.36
2017-11-24T20:17:36.301Z,1006.36
2017-11-24T20:18:02.419Z,1006.34
2017-11-24T20:18:28.543Z,1006.33
2017-11-24T20:18:54.661Z,1006.36
2017-11-24T20:19:20.784Z,1006.34
2017-11-24T20:19:46.902Z,1006.37
2017-11-24T20:20:13.022Z,1006.34
2017-11-24T20:20:39.149Z,1006.34
2017-11-24T20:21:05.285Z,1006.31
2017-11-24T20:21:31.425Z,1006.29
2017-11-24T20:21:57.549Z,1006.29
2017-11-24T20:22:23.668Z,1006.29
2017-11-24T20:22:49.788Z,1006.3
2017-11-24T20:23:15.936Z,1006.26
2017-11-24T20:23:42.054Z,1006.3
2017-11-24T20:24:08.175Z,1006.29
2017-11-24T20:24:34.302Z,1006.31
2017-11-24T20:25:00.420Z,1006.31
2017-11-24T20:25:26.545Z,1006.28
2017-11-24T20:25:52.682Z,1006.34
2017-11-24T20:26:18.796Z,1006.27
2017-11-24T20:26:44.939Z,1006.27
2017-11-24T20:27:12.032Z,1006.28
2017-11-24T20:27:39.900Z,1006.31
2017-11-24T20:28:06.043Z,1006.29
2017-11-24T20:28:32.170Z,1006.28
2017-11-24T20:28:58.297Z,1006.29
2017-11-24T20:29:24.419Z,1006.25
2017-11-24T20:29:50.538Z,1006.28
2017-11-24T20:30:16.668Z,1006.25
2017-11-24T20:30:42.801Z,1006.33
2017-11-24T20:31:08.929Z,1006.31
2017-11-24T20:31:35.041Z,1006.32
2017-11-24T20:32:01.175Z,1006.31
2017-11-24T20:32:27.289Z,1006.29
2017-11-24T20:32:53.423Z,1006.29
2017-11-24T20:33:19.547Z,1006.31
2017-11-24T20:33:45.669Z,1006.28
2017-11-24T20:34:11.784Z,1006.25
2017-11-24T20:34:37.914Z,1006.25
2017-11-24T20:35:04.032Z,1006.26
2017-11-24T20:35:30.156Z,1006.26
2017-11-24T20:35:56.274Z,1006.24
2017-11-24T20:36:22.393Z,1006.26
2017-11-24T20:36:48.514Z,1006.23
2017-11-24T20:37:14.641Z,1006.22
2017-11-24T20:37:40.772Z,1006.27
2017-11-24T20:38:07.098Z,1006.26
2017-11-24T20:38:33.224Z,1006.24
2017-11-24T20:38:59.339Z,1006.22
2017-11-24T20:39:25.460Z,1006.22
2017-11-24T20:39:51.618Z,1006.21
2017-11-24T20:40:17.742Z,1006.19
2017-11-24T20:40:43.862Z,1006.2
2017-11-24T20:41:09.985Z,1006.2
2017-11-24T20:41:36.101Z,1006.17
2017-11-24T20:42:02.222Z,1006.17
2017-11-24T20:42:28.351Z,1006.17
2017-11-24T20:42:54.475Z,1006.14
2017-11-24T20:43:20.604Z,1006.15
2017-11-24T20:43:46.767Z,1006.15
2017-11-24T20:44:12.887Z,1006.15
2017-11-24T20:44:39.010Z,1006.14
2017-11-24T20:45:05.129Z,1006.12
2017-11-24T20:45:31.246Z,1006.14
2017-11-24T20:45:57.373Z,1006.11
2017-11-24T20:46:23.499Z,1006.09
2017-11-24T20:46:49.623Z,1006.07
2017-11-24T20:47:15.764Z,1006.04
2017-11-24T20:47:41.907Z,1006.06
2017-11-24T20:48:08.013Z,1006.03
2017-11-24T20:48:34.130Z,1006.03
2017-11-24T20:49:00.246Z,1006.02
2017-11-24T20:49:26.365Z,1005.96
2017-11-24T20:49:52.511Z,1005.97
2017-11-24T20:50:18.627Z,1005.98
2017-11-24T20:50:44.750Z,1005.99
2017-11-24T20:51:10.925Z,1005.98
2017-11-24T20:51:37.023Z,1005.96
2017-11-24T20:52:03.148Z,1005.98
2017-11-24T20:52:29.260Z,1005.97
2017-11-24T20:52:55.386Z,1005.99
2017-11-24T20:53:21.505Z,1005.97
2017-11-24T20:53:47.628Z,1005.98
2017-11-24T20:54:13.755Z,1005.96
2017-11-24T20:54:39.875Z,1005.96
2017-11-24T20:55:05.993Z,1005.98
2017-11-24T20:55:32.109Z,1005.99
2017-11-24T20:55:58.233Z,1005.99
2017-11-24T20:56:24.356Z,1006
2017-11-24T20:56:50.475Z,1005.97
2017-11-24T20:57:16.606Z,1005.94
2017-11-24T20:57:42.759Z,1005.99
2017-11-24T20:58:08.881Z,1005.99
2017-11-24T20:58:35.012Z,1005.97
2017-11-24T20:59:01.142Z,1006
2017-11-24T20:59:27.268Z,1006.01
2017-11-24T20:59:53.387Z,1006.02
2017-11-24T21:00:19.524Z,1006.01
2017-11-24T21:00:45.651Z,1006.02
2017-11-24T21:01:11.772Z,1006.01
2017-11-24T21:01:37.896Z,1006.05
2017-11-24T21:02:04.286Z,1006.04
2017-11-24T21:02:30.394Z,1006.02
2017-11-24T21:02:56.536Z,1006.04
2017-11-24T21:03:22.690Z,1006
2017-11-24T21:03:48.804Z,1006.02
2017-11-24T21:04:14.921Z,1006.01
2017-11-24T21:04:41.048Z,1006
2017-11-24T21:05:07.164Z,1006
2017-11-24T21:05:33.281Z,1005.97
2017-11-24T21:05:59.405Z,1005.97
2017-11-24T21:06:25.528Z,1006.01
2017-11-24T21:06:51.655Z,1005.98
2017-11-24T21:07:17.786Z,1005.99
2017-11-24T21:07:43.914Z,1006
2017-11-24T21:08:10.034Z,1006.03
2017-11-24T21:08:36.155Z,1006
2017-11-24T21:09:02.295Z,1006.06
2017-11-24T21:09:28.429Z,1006.05
2017-11-24T21:09:54.559Z,1006.04
2017-11-24T21:10:20.688Z,1006.04
2017-11-24T21:10:46.814Z,1006.05
2017-11-24T21:11:12.931Z,1006.06
2017-11-24T21:11:39.063Z,1006.09
2017-11-24T21:12:05.181Z,1006.06
2017-11-24T21:12:31.300Z,1006.04
2017-11-24T21:12:57.421Z,1006.06
2017-11-24T21:13:23.547Z,1006.04
2017-11-24T21:13:49.666Z,1006.08
2017-11-24T21:14:15.791Z,1006.06
2017-11-24T21:14:41.906Z,1006.06
2017-11-24T21:15:08.025Z,1006.05
2017-11-24T21:15:34.156Z,1006.09
2017-11-24T21:16:00.303Z,1006.05
2017-11-24T21:16:26.417Z,1006.04
2017-11-24T21:16:52.543Z,1006.06
2017-11-24T21:17:18.666Z,1006.07
2017-11-24T21:17:44.780Z,1006.05
2017-11-24T21:18:10.923Z,1006.04
2017-11-24T21:18:37.042Z,1006.05
2017-11-24T21:19:03.165Z,1006.05
2017-11-24T21:19:29.334Z,1006.04
2017-11-24T21:19:55.463Z,1006.01
2017-11-24T21:20:21.577Z,1006.07
2017-11-24T21:20:47.701Z,1006.07
2017-11-24T21:21:13.841Z,1006.07
2017-11-24T21:21:39.968Z,1006.07
2017-11-24T21:22:06.089Z,1006.08
2017-11-24T21:22:32.207Z,1006.04
2017-11-24T21:22:58.353Z,1006.08
2017-11-24T21:23:24.465Z,1006.08
2017-11-24T21:23:50.594Z,1006.06
2017-11-24T21:24:16.708Z,1006.05
2017-11-24T21:24:42.828Z,1006.1
2017-11-24T21:25:08.960Z,1006.1
2017-11-24T21:25:35.077Z,1006.1
2017-11-24T21:26:01.203Z,1006.1
2017-11-24T21:26:27.368Z,1006.1
2017-11-24T21:26:53.458Z,1006.12
2017-11-24T21:27:19.577Z,1006.11
2017-11-24T21:27:45.701Z,1006.07
2017-11-24T21:28:11.843Z,1006.11
2017-11-24T21:28:37.958Z,1006.13
2017-11-24T21:29:04.085Z,1006.11
2017-11-24T21:29:30.205Z,1006.1
2017-11-24T21:29:56.329Z,1006.13
2017-11-24T21:30:22.450Z,1006.11
2017-11-24T21:30:48.588Z,1006.09
2017-11-24T21:31:14.711Z,1006.09
2017-11-24T21:31:40.837Z,1006.11
2017-11-24T21:32:06.955Z,1006.08
2017-11-24T21:32:33.073Z,1006.03
2017-11-24T21:32:59.203Z,1006.03
2017-11-24T21:33:25.318Z,1006.05
2017-11-24T21:33:51.454Z,1005.99
2017-11-24T21:34:17.579Z,1005.98
2017-11-24T21:34:43.696Z,1005.97
2017-11-24T21:35:09.850Z,1005.98
2017-11-24T21:35:35.977Z,1005.93
2017-11-24T21:36:02.106Z,1005.94
2017-11-24T21:36:28.221Z,1005.97
2017-11-24T21:36:54.347Z,1005.93
2017-11-24T21:37:20.471Z,1005.91
2017-11-24T21:37:46.590Z,1005.93
2017-11-24T21:38:12.715Z,1005.89
2017-11-24T21:38:38.837Z,1005.92
2017-11-24T21:39:04.954Z,1005.88
2017-11-24T21:39:31.092Z,1005.85
2017-11-24T21:39:57.211Z,1005.88
2017-11-24T21:40:23.331Z,1005.89
2017-11-24T21:40:49.453Z,1005.86
2017-11-24T21:41:15.589Z,1005.86
2017-11-24T21:41:41.715Z,1005.88
2017-11-24T21:42:08.216Z,1005.85
2017-11-24T21:42:34.304Z,1005.84
2017-11-24T21:43:00.422Z,1005.8
2017-11-24T21:43:26.545Z,1005.81
2017-11-24T21:43:52.671Z,1005.82
2017-11-24T21:44:18.844Z,1005.81
2017-11-24T21:44:44.936Z,1005.82
2017-11-24T21:45:11.092Z,1005.78
2017-11-24T21:45:37.170Z,1005.79
2017-11-24T21:46:03.299Z,1005.78
2017-11-24T21:46:29.420Z,1005.78
2017-11-24T21:46:55.543Z,1005.77
2017-11-24T21:47:21.662Z,1005.78
2017-11-24T21:47:47.783Z,1005.77
2017-11-24T21:48:13.901Z,1005.77
2017-11-24T21:48:40.027Z,1005.77
2017-11-24T21:49:06.153Z,1005.78
2017-11-24T21:49:32.273Z,1005.77
2017-11-24T21:49:58.395Z,1005.78
2017-11-24T21:50:24.523Z,1005.76
2017-11-24T21:50:50.657Z,1005.73
2017-11-24T21:51:16.781Z,1005.77
2017-11-24T21:51:42.908Z,1005.76
2017-11-24T21:52:09.023Z,1005.74
2017-11-24T21:52:35.146Z,1005.79
2017-11-24T21:53:01.262Z,1005.75
2017-11-24T21:53:27.382Z,1005.73
2017-11-24T21:53:53.502Z,1005.7
2017-11-24T21:54:19.620Z,1005.71
2017-11-24T21:54:45.752Z,1005.66
2017-11-24T21:55:11.863Z,1005.66
2017-11-24T21:55:38.011Z,1005.68
2017-11-24T21:56:04.134Z,1005.65
2017-11-24T21:56:30.250Z,1005.64
2017-11-24T21:56:56.377Z,1005.63
2017-11-24T21:57:22.512Z,1005.64
2017-11-24T21:57:48.624Z,1005.62
2017-11-24T21:58:14.748Z,1005.61
2017-11-24T21:58:40.872Z,1005.59
2017-11-24T21:59:06.990Z,1005.58
2017-11-24T21:59:33.110Z,1005.61
2017-11-24T21:59:59.237Z,1005.58
2017-11-24T22:00:25.361Z,1005.6
2017-11-24T22:00:51.480Z,1005.62
2017-11-24T22:01:17.599Z,1005.58
2017-11-24T22:01:43.741Z,1005.6
2017-11-24T22:02:10.083Z,1005.6
2017-11-24T22:02:36.200Z,1005.63
2017-11-24T22:03:02.321Z,1005.62
2017-11-24T22:03:28.451Z,1005.61
2017-11-24T22:03:54.579Z,1005.64
2017-11-24T22:04:20.725Z,1005.63
2017-11-24T22:04:46.853Z,1005.6
2017-11-24T22:05:12.970Z,1005.63
2017-11-24T22:05:39.222Z,1005.63
2017-11-24T22:06:05.340Z,1005.65
2017-11-24T22:06:31.462Z,1005.6
2017-11-24T22:06:57.596Z,1005.61
2017-11-24T22:07:23.716Z,1005.61
2017-11-24T22:07:49.834Z,1005.61
2017-11-24T22:08:15.956Z,1005.6
2017-11-24T22:08:42.243Z,1005.61
2017-11-24T22:09:08.363Z,1005.58
2017-11-24T22:09:34.489Z,1005.57
2017-11-24T22:10:00.608Z,1005.58
2017-11-24T22:10:26.736Z,1005.61
2017-11-24T22:10:52.862Z,1005.57
2017-11-24T22:11:18.983Z,1005.58
2017-11-24T22:11:45.117Z,1005.61
2017-11-24T22:12:11.246Z,1005.57
2017-11-24T22:12:37.363Z,1005.59
2017-11-24T22:13:03.480Z,1005.57
2017-11-24T22:13:29.599Z,1005.62
2017-11-24T22:13:55.727Z,1005.57
2017-11-24T22:14:21.875Z,1005.57
2017-11-24T22:14:47.993Z,1005.62
2017-11-24T22:15:14.117Z,1005.6
2017-11-24T22:15:40.254Z,1005.63
2017-11-24T22:16:06.382Z,1005.62
2017-11-24T22:16:32.503Z,1005.6
2017-11-24T22:16:58.661Z,1005.59
2017-11-24T22:17:24.810Z,1005.61
2017-11-24T22:17:50.929Z,1005.58
2017-11-24T22:18:17.051Z,1005.57
2017-11-24T22:18:43.221Z,1005.56
2017-11-24T22:19:09.343Z,1005.55
2017-11-24T22:19:35.465Z,1005.55
2017-11-24T22:20:01.581Z,1005.53
2017-11-24T22:20:27.700Z,1005.51
2017-11-24T22:20:53.860Z,1005.53
2017-11-24T22:21:19.993Z,1005.53
2017-11-24T22:21:46.100Z,1005.55
2017-11-24T22:22:12.225Z,1005.51
2017-11-24T22:22:38.342Z,1005.54
2017-11-24T22:23:04.461Z,1005.53
2017-11-24T22:23:30.587Z,1005.53
2017-11-24T22:23:56.704Z,1005.55
2017-11-24T22:24:22.833Z,1005.56
2017-11-24T22:24:48.986Z,1005.55
2017-11-24T22:25:15.106Z,1005.58
2017-11-24T22:25:41.251Z,1005.53
2017-11-24T22:26:07.364Z,1005.57
2017-11-24T22:26:33.490Z,1005.54
2017-11-24T22:26:59.607Z,1005.61
2017-11-24T22:27:25.732Z,1005.59
2017-11-24T22:27:51.848Z,1005.61
2017-11-24T22:28:17.974Z,1005.65
2017-11-24T22:28:44.099Z,1005.64
2017-11-24T22:29:10.235Z,1005.61
2017-11-24T22:29:36.345Z,1005.61
2017-11-24T22:30:02.472Z,1005.58
2017-11-24T22:30:28.593Z,1005.62
2017-11-24T22:30:54.709Z,1005.65
2017-11-24T22:31:20.829Z,1005.58
2017-11-24T22:31:46.988Z,1005.61
2017-11-24T22:32:13.116Z,1005.63
2017-11-24T22:32:39.236Z,1005.59
2017-11-24T22:33:05.356Z,1005.62
2017-11-24T22:33:31.471Z,1005.62
2017-11-24T22:33:57.598Z,1005.61
2017-11-24T22:34:23.727Z,1005.54
2017-11-24T22:34:49.856Z,1005.54
2017-11-24T22:35:15.981Z,1005.53
2017-11-24T22:35:42.103Z,1005.55
2017-11-24T22:36:08.221Z,1005.52
2017-11-24T22:36:34.339Z,1005.55
2017-11-24T22:37:00.465Z,1005.53
2017-11-24T22:37:26.617Z,1005.48
2017-11-24T22:37:52.735Z,1005.49
2017-11-24T22:38:18.862Z,1005.5
2017-11-24T22:38:45.619Z,1005.52
2017-11-24T22:39:12.762Z,1005.5
2017-11-24T22:39:38.902Z,1005.5
2017-11-24T22:40:05.028Z,1005.47
2017-11-24T22:40:31.144Z,1005.46
2017-11-24T22:40:57.262Z,1005.43
2017-11-24T22:41:23.408Z,1005.42
2017-11-24T22:41:49.527Z,1005.4
2017-11-24T22:42:15.653Z,1005.41
2017-11-24T22:42:41.786Z,1005.38
2017-11-24T22:43:07.891Z,1005.4
2017-11-24T22:43:34.098Z,1005.42
2017-11-24T22:44:00.219Z,1005.39
2017-11-24T22:44:26.336Z,1005.38
2017-11-24T22:44:52.457Z,1005.4
2017-11-24T22:45:18.583Z,1005.36
2017-11-24T22:45:44.722Z,1005.35
2017-11-24T22:46:10.839Z,1005.37
2017-11-24T22:46:36.957Z,1005.35
2017-11-24T22:47:03.079Z,1005.35
2017-11-24T22:47:29.216Z,1005.36
2017-11-24T22:47:55.343Z,1005.38
2017-11-24T22:48:21.459Z,1005.4
2017-11-24T22:48:47.585Z,1005.39
2017-11-24T22:49:13.711Z,1005.39
2017-11-24T22:49:39.826Z,1005.41
2017-11-24T22:50:05.968Z,1005.4
2017-11-24T22:50:32.090Z,1005.38
2017-11-24T22:50:58.238Z,1005.36
2017-11-24T22:51:24.363Z,1005.38
2017-11-24T22:51:50.476Z,1005.32
2017-11-24T22:52:16.608Z,1005.36
2017-11-24T22:52:42.746Z,1005.37
2017-11-24T22:53:08.864Z,1005.39
2017-11-24T22:53:34.981Z,1005.35
2017-11-24T22:54:01.113Z,1005.37
2017-11-24T22:54:27.258Z,1005.39
2017-11-24T22:54:53.374Z,1005.38
2017-11-24T22:55:19.503Z,1005.43
2017-11-24T22:55:45.623Z,1005.42
2017-11-24T22:56:11.747Z,1005.45
2017-11-24T22:56:37.869Z,1005.46
2017-11-24T22:57:03.987Z,1005.45
2017-11-24T22:57:30.136Z,1005.45
2017-11-24T22:57:56.296Z,1005.47
2017-11-24T22:58:22.391Z,1005.44
2017-11-24T22:58:48.513Z,1005.44
2017-11-24T22:59:14.653Z,1005.46
2017-11-24T22:59:40.788Z,1005.43
2017-11-24T23:00:06.924Z,1005.42
2017-11-24T23:00:33.277Z,1005.44
2017-11-24T23:00:59.425Z,1005.41
2017-11-24T23:01:25.552Z,1005.4
2017-11-24T23:01:51.667Z,1005.39
2017-11-24T23:02:17.786Z,1005.38
2017-11-24T23:02:43.911Z,1005.37
2017-11-24T23:03:10.027Z,1005.37
2017-11-24T23:03:36.155Z,1005.35
2017-11-24T23:04:02.272Z,1005.31
2017-11-24T23:04:28.396Z,1005.32
2017-11-24T23:04:54.591Z,1005.31
2017-11-24T23:05:20.743Z,1005.28
2017-11-24T23:05:46.865Z,1005.26
2017-11-24T23:06:13.008Z,1005.26
2017-11-24T23:06:39.136Z,1005.23
2017-11-24T23:07:05.253Z,1005.22
2017-11-24T23:07:31.372Z,1005.25
2017-11-24T23:07:57.496Z,1005.25
2017-11-24T23:08:23.616Z,1005.26
2017-11-24T23:08:49.740Z,1005.27
2017-11-24T23:09:15.865Z,1005.25
2017-11-24T23:09:41.982Z,1005.27
2017-11-24T23:10:08.107Z,1005.25
2017-11-24T23:10:34.225Z,1005.25
2017-11-24T23:11:00.349Z,1005.24
2017-11-24T23:11:26.494Z,1005.28
2017-11-24T23:11:52.610Z,1005.28
2017-11-24T23:12:18.738Z,1005.23
2017-11-24T23:12:44.882Z,1005.25
2017-11-24T23:13:10.999Z,1005.25
2017-11-24T23:13:37.122Z,1005.24
2017-11-24T23:14:03.263Z,1005.23
2017-11-24T23:14:29.386Z,1005.25
2017-11-24T23:14:55.508Z,1005.24
2017-11-24T23:15:21.663Z,1005.23
2017-11-24T23:15:47.775Z,1005.22
2017-11-24T23:16:13.900Z,1005.23
2017-11-24T23:16:40.011Z,1005.24
2017-11-24T23:17:06.130Z,1005.23
2017-11-24T23:17:32.254Z,1005.24
2017-11-24T23:17:58.395Z,1005.25
2017-11-24T23:18:24.520Z,1005.25
2017-11-24T23:18:50.645Z,1005.22
2017-11-24T23:19:16.794Z,1005.22
2017-11-24T23:19:42.913Z,1005.23
2017-11-24T23:20:09.033Z,1005.27
2017-11-24T23:20:35.151Z,1005.27
2017-11-24T23:21:01.264Z,1005.26
2017-11-24T23:21:27.388Z,1005.21
2017-11-24T23:21:53.508Z,1005.23
2017-11-24T23:22:19.627Z,1005.25
2017-11-24T23:22:45.752Z,1005.23
2017-11-24T23:23:11.868Z,1005.21
2017-11-24T23:23:37.993Z,1005.27
2017-11-24T23:24:04.114Z,1005.26
2017-11-24T23:24:30.230Z,1005.24
2017-11-24T23:24:56.353Z,1005.23
2017-11-24T23:25:22.477Z,1005.2
2017-11-24T23:25:48.594Z,1005.2
2017-11-24T23:26:14.723Z,1005.19
2017-11-24T23:26:40.862Z,1005.17
2017-11-24T23:27:07.015Z,1005.15
2017-11-24T23:27:33.140Z,1005.14
2017-11-24T23:27:59.304Z,1005.14
2017-11-24T23:28:25.439Z,1005.09
2017-11-24T23:28:51.564Z,1005.12
2017-11-24T23:29:17.690Z,1005.11
2017-11-24T23:29:43.805Z,1005.1
2017-11-24T23:30:09.932Z,1005.04
2017-11-24T23:30:36.048Z,1005.01
2017-11-24T23:31:02.196Z,1005.03
2017-11-24T23:31:28.337Z,1005.03
2017-11-24T23:31:54.459Z,1004.96
2017-11-24T23:32:20.586Z,1004.94
2017-11-24T23:32:46.710Z,1005
2017-11-24T23:33:12.836Z,1004.98
2017-11-24T23:33:38.946Z,1005.01
2017-11-24T23:34:05.100Z,1005
2017-11-24T23:34:31.219Z,1005.01
2017-11-24T23:34:57.341Z,1005.02
2017-11-24T23:35:23.467Z,1004.99
2017-11-24T23:35:49.586Z,1004.99
2017-11-24T23:36:15.704Z,1005
2017-11-24T23:36:41.844Z,1005
2017-11-24T23:37:07.956Z,1005.03
2017-11-24T23:37:34.087Z,1005
2017-11-24T23:38:00.205Z,1005.01
2017-11-24T23:38:26.328Z,1005.01
2017-11-24T23:38:52.455Z,1005.01
2017-11-24T23:39:18.576Z,1005
2017-11-24T23:39:44.695Z,1004.97
2017-11-24T23:40:10.835Z,1005
2017-11-24T23:40:36.959Z,1005.02
2017-11-24T23:41:03.074Z,1004.98
2017-11-24T23:41:29.198Z,1004.99
2017-11-24T23:41:55.335Z,1004.99
2017-11-24T23:42:21.459Z,1004.97
2017-11-24T23:42:47.601Z,1005.03
2017-11-24T23:43:13.758Z,1004.96
2017-11-24T23:43:39.895Z,1004.98
2017-11-24T23:44:06.018Z,1004.97
2017-11-24T23:44:32.135Z,1004.97
2017-11-24T23:44:58.255Z,1004.95
2017-11-24T23:45:24.379Z,1005.03
2017-11-24T23:45:50.535Z,1004.94
2017-11-24T23:46:16.655Z,1004.92
2017-11-24T23:46:42.780Z,1004.94
2017-11-24T23:47:08.898Z,1004.9
2017-11-24T23:47:35.021Z,1004.93
2017-11-24T23:48:01.146Z,1004.92
2017-11-24T23:48:27.266Z,1004.85
2017-11-24T23:48:53.387Z,1004.92
2017-11-24T23:49:19.508Z,1004.91
2017-11-24T23:49:45.633Z,1004.9
2017-11-24T23:50:11.761Z,1004.88
2017-11-24T23:50:37.900Z,1004.88
2017-11-24T23:51:04.022Z,1004.88
2017-11-24T23:51:30.148Z,1004.88
2017-11-24T23:51:56.264Z,1004.89
2017-11-24T23:52:22.385Z,1004.9
2017-11-24T23:52:48.506Z,1004.87
2017-11-24T23:53:14.630Z,1004.83
2017-11-24T23:53:40.752Z,1004.83
2017-11-24T23:54:06.879Z,1004.81
2017-11-24T23:54:33.003Z,1004.79
2017-11-24T23:54:59.129Z,1004.79
2017-11-24T23:55:25.251Z,1004.75
2017-11-24T23:55:51.368Z,1004.73
2017-11-24T23:56:17.489Z,1004.74
2017-11-24T23:56:43.613Z,1004.7
2017-11-24T23:57:09.733Z,1004.7
2017-11-24T23:57:35.854Z,1004.74
2017-11-24T23:58:02.095Z,1004.68
2017-11-24T23:58:28.314Z,1004.69
2017-11-24T23:58:54.371Z,1004.73
2017-11-24T23:59:20.546Z,1004.65
2017-11-24T23:59:46.668Z,1004.64
